createdAt,value
2022-11-19T00:01:40.203Z,-69
2022-11-19T00:06:42.127Z,-69
2022-11-19T00:12:02.618Z,-70
2022-11-19T00:17:04.904Z,-70
2022-11-19T00:22:07.253Z,-70
2022-11-19T00:27:09.398Z,-69
2022-11-19T00:32:11.322Z,-69
2022-11-19T00:37:13.574Z,-68
2022-11-19T00:42:15.698Z,-69
2022-11-19T00:47:17.557Z,-68
2022-11-19T00:52:19.577Z,-69
2022-11-19T00:57:21.416Z,-69
2022-11-19T01:02:24.900Z,-69
2022-11-19T01:07:27.020Z,-69
2022-11-19T01:12:28.932Z,-69
2022-11-19T01:17:31.086Z,-68
2022-11-19T01:22:33.013Z,-68
2022-11-19T01:27:34.979Z,-67
2022-11-19T01:32:36.911Z,-70
2022-11-19T01:37:38.980Z,-69
2022-11-19T01:42:49.701Z,-69
2022-11-19T01:47:54.152Z,-69
2022-11-19T01:52:56.135Z,-69
2022-11-19T01:58:01.484Z,-69
2022-11-19T02:03:03.518Z,-70
2022-11-19T02:08:08.543Z,-69
2022-11-19T02:13:40.922Z,-69
2022-11-19T02:18:58.345Z,-69
2022-11-19T02:24:15.858Z,-69
2022-11-19T02:29:32.244Z,-69
2022-11-19T02:34:43.728Z,-68
2022-11-19T02:40:07.419Z,-69
2022-11-19T02:45:33.376Z,-69
2022-11-19T02:50:40.759Z,-69
2022-11-19T02:56:02.844Z,-69
2022-11-19T03:01:25.705Z,-69
2022-11-19T03:06:32.829Z,-69
2022-11-19T03:11:36.710Z,-69
2022-11-19T03:16:49.244Z,-69
2022-11-19T03:22:13.007Z,-70
2022-11-19T03:27:20.832Z,-69
2022-11-19T03:32:29.116Z,-70
2022-11-19T03:37:34.995Z,-69
2022-11-19T03:42:38.562Z,-69
2022-11-19T03:47:41.704Z,-69
2022-11-19T03:52:44.232Z,-70
2022-11-19T03:57:46.276Z,-69
2022-11-19T04:02:48.156Z,-69
2022-11-19T04:07:50.320Z,-69
2022-11-19T04:12:52.198Z,-69
2022-11-19T04:17:54.100Z,-69
2022-11-19T04:22:56.240Z,-68
2022-11-19T04:27:58.143Z,-69
2022-11-19T04:33:00.230Z,-71
2022-11-19T04:38:02.123Z,-69
2022-11-19T04:43:03.989Z,-69
2022-11-19T04:48:06.247Z,-69
2022-11-19T04:53:08.218Z,-69
2022-11-19T04:58:10.420Z,-69
2022-11-19T05:03:12.347Z,-69
2022-11-19T05:08:14.324Z,-68
2022-11-19T05:13:16.247Z,-68
2022-11-19T05:18:18.209Z,-66
2022-11-19T05:23:21.037Z,-68
2022-11-19T05:28:37.537Z,-68
2022-11-19T05:33:40.859Z,-69
2022-11-19T05:38:42.966Z,-67
2022-11-19T05:43:44.854Z,-66
2022-11-19T05:48:46.848Z,-69
2022-11-19T05:53:48.797Z,-69
2022-11-19T05:58:50.796Z,-70
2022-11-19T06:03:53.021Z,-69
2022-11-19T06:08:54.972Z,-70
2022-11-19T06:13:56.900Z,-70
2022-11-19T06:18:58.836Z,-69
2022-11-19T06:24:01.172Z,-70
2022-11-19T06:29:03.288Z,-70
2022-11-19T06:34:05.412Z,-70
2022-11-19T06:39:07.588Z,-70
2022-11-19T06:44:09.505Z,-69
2022-11-19T06:49:18.469Z,-67
2022-11-19T06:54:22.051Z,-69
2022-11-19T06:59:24.040Z,-70
2022-11-19T07:04:26.127Z,-67
2022-11-19T07:09:28.110Z,-68
2022-11-19T07:14:30.022Z,-69
2022-11-19T07:19:32.263Z,-67
2022-11-19T07:24:35.726Z,-67
2022-11-19T07:29:38.774Z,-63
2022-11-19T07:34:40.723Z,-68
2022-11-19T07:39:42.628Z,-71
2022-11-19T07:44:45.080Z,-70
2022-11-19T07:49:47.008Z,-76
2022-11-19T07:54:48.931Z,-78
2022-11-19T07:59:50.974Z,-76
2022-11-19T08:04:53.191Z,-69
2022-11-19T08:09:55.124Z,-74
2022-11-19T08:14:57.092Z,-72
2022-11-19T08:19:59.018Z,-73
2022-11-19T08:25:01.388Z,-70
2022-11-19T08:30:04.519Z,-70
2022-11-19T08:35:06.996Z,-70
2022-11-19T08:40:09.476Z,-71
2022-11-19T08:45:11.361Z,-70
2022-11-19T08:50:13.519Z,-69
2022-11-19T08:55:15.486Z,-71
2022-11-19T09:00:18.536Z,-73
2022-11-19T09:05:20.803Z,-73
2022-11-19T09:10:22.991Z,-68
2022-11-19T09:15:24.903Z,-69
2022-11-19T09:20:26.832Z,-71
2022-11-19T09:25:29.313Z,-70
2022-11-19T09:30:31.555Z,-71
2022-11-19T09:35:33.473Z,-70
2022-11-19T09:40:35.452Z,-68
2022-11-19T09:46:15.017Z,-70
2022-11-19T09:51:29.135Z,-70
2022-11-19T09:56:40.100Z,-75
2022-11-19T10:01:42.102Z,-70
2022-11-19T10:07:20.143Z,-75
2022-11-19T10:12:34.131Z,-74
2022-11-19T10:17:39.372Z,-76
2022-11-19T10:23:13.685Z,-73
2022-11-19T10:28:26.536Z,-74
2022-11-19T10:33:36.475Z,-75
2022-11-19T10:39:01.042Z,-72
2022-11-19T10:44:38.447Z,-72
2022-11-19T10:49:42.424Z,-73
2022-11-19T10:54:45.879Z,-73
2022-11-19T10:59:50.984Z,-70
2022-11-19T11:05:06.539Z,-70
2022-11-19T11:10:36.344Z,-73
2022-11-19T11:15:50.479Z,-71
2022-11-19T11:20:52.684Z,-69
2022-11-19T11:26:03.737Z,-68
2022-11-19T11:31:10.860Z,-67
2022-11-19T11:36:19.216Z,-69
2022-11-19T11:42:04.936Z,-68
2022-11-19T11:47:22.615Z,-69
2022-11-19T11:52:40.037Z,-69
2022-11-19T11:58:00.488Z,-68
2022-11-19T12:03:10.749Z,-68
2022-11-19T12:08:12.508Z,-68
2022-11-19T12:13:17.119Z,-69
2022-11-19T12:18:47.302Z,-68
2022-11-19T12:24:14.021Z,-68
2022-11-19T12:29:24.552Z,-67
2022-11-19T12:35:08.081Z,-68
2022-11-19T12:40:34.042Z,-68
2022-11-19T12:45:53.200Z,-66
2022-11-19T12:51:44.585Z,-67
2022-11-19T12:57:14.155Z,-67
2022-11-19T13:02:27.383Z,-66
2022-11-19T13:07:54.224Z,-66
2022-11-19T13:12:58.226Z,-67
2022-11-19T13:18:03.623Z,-67
2022-11-19T13:23:07.082Z,-67
2022-11-19T13:28:24.924Z,-69
2022-11-19T13:33:34.210Z,-64
2022-11-19T13:38:43.884Z,-64
2022-11-19T13:44:04.429Z,-63
2022-11-19T13:49:25.115Z,-63
2022-11-19T13:54:32.751Z,-64
2022-11-19T13:59:43.340Z,-64
2022-11-19T14:05:03.646Z,-63
2022-11-19T14:10:21.635Z,-64
2022-11-19T14:16:06.847Z,-67
2022-11-19T14:21:47.607Z,-69
2022-11-19T14:26:52.640Z,-68
2022-11-19T14:32:00.557Z,-66
2022-11-19T14:37:10.932Z,-66
2022-11-19T14:42:14.158Z,-68
2022-11-19T14:47:22.210Z,-67
2022-11-19T14:52:30.783Z,-68
2022-11-19T14:57:39.142Z,-67
2022-11-19T15:02:46.172Z,-69
2022-11-19T15:07:55.856Z,-69
2022-11-19T15:13:22.600Z,-68
2022-11-19T15:18:43.158Z,-70
2022-11-19T15:24:06.239Z,-68
2022-11-19T15:29:38.527Z,-69
2022-11-19T15:40:19.518Z,-75
2022-11-19T15:45:24.486Z,-75
2022-11-19T15:50:27.872Z,-70
2022-11-19T15:55:31.896Z,-72
2022-11-19T16:00:48.263Z,-73
2022-11-19T16:06:05.011Z,-72
2022-11-19T16:11:25.963Z,-71
2022-11-19T16:16:47.972Z,-72
2022-11-19T16:21:59.811Z,-75
2022-11-19T16:27:03.150Z,-73
2022-11-19T16:32:05.800Z,-73
2022-11-19T16:37:12.592Z,-72
2022-11-19T16:42:18.089Z,-71
2022-11-19T16:47:25.644Z,-74
2022-11-19T16:52:38.797Z,-68
2022-11-19T16:57:49.317Z,-66
2022-11-19T17:02:52.162Z,-70
2022-11-19T17:08:14.597Z,-68
2022-11-19T17:13:19.572Z,-68
2022-11-19T17:18:35.228Z,-66
2022-11-19T17:23:47.876Z,-66
2022-11-19T17:28:54.631Z,-68
2022-11-19T17:34:22.834Z,-68
2022-11-19T17:39:25.968Z,-67
2022-11-19T17:44:34.804Z,-69
2022-11-19T17:49:37.949Z,-69
2022-11-19T17:54:39.904Z,-68
2022-11-19T17:59:41.885Z,-69
2022-11-19T18:04:45.067Z,-69
2022-11-19T18:09:47.069Z,-69
2022-11-19T18:15:00.668Z,-69
2022-11-19T18:20:09.232Z,-68
2022-11-19T18:25:20.049Z,-69
2022-11-19T18:30:22.296Z,-69
2022-11-19T18:35:25.706Z,-69
2022-11-19T18:40:27.871Z,-69
2022-11-19T18:45:30.208Z,-68
2022-11-19T18:50:32.328Z,-68
2022-11-19T18:55:34.234Z,-70
2022-11-19T19:00:36.226Z,-67
2022-11-19T19:05:38.241Z,-68
2022-11-19T19:10:41.511Z,-68
2022-11-19T19:15:49.988Z,-67
2022-11-19T19:20:51.915Z,-66
2022-11-19T19:25:54.386Z,-69
2022-11-19T19:30:59.318Z,-67
2022-11-19T19:36:05.526Z,-65
2022-11-19T19:41:11.386Z,-66
2022-11-19T19:46:16.223Z,-67
2022-11-19T19:51:20.656Z,-66
2022-11-19T19:56:30.527Z,-65
2022-11-19T20:01:35.297Z,-67
2022-11-19T20:06:41.479Z,-66
2022-11-19T20:11:43.450Z,-67
2022-11-19T20:16:45.953Z,-66
2022-11-19T20:21:48.178Z,-66
2022-11-19T20:26:50.359Z,-67
2022-11-19T20:31:52.415Z,-71
2022-11-19T20:36:57.411Z,-66
2022-11-19T20:42:18.156Z,-65
2022-11-19T20:47:26.291Z,-70
2022-11-19T20:52:28.536Z,-67
2022-11-19T20:57:30.779Z,-68
2022-11-19T21:02:32.740Z,-68
2022-11-19T21:07:34.776Z,-71
2022-11-19T21:12:36.779Z,-69
2022-11-19T21:17:38.895Z,-67
2022-11-19T21:22:40.876Z,-70
2022-11-19T21:27:43.117Z,-63
2022-11-19T21:32:45.011Z,-69
2022-11-19T21:37:47.109Z,-68
2022-11-19T21:42:49.098Z,-70
2022-11-19T21:47:51.220Z,-67
2022-11-19T21:52:59.626Z,-65
2022-11-19T21:58:08.046Z,-63
2022-11-19T22:03:09.955Z,-71
2022-11-19T22:08:11.766Z,-71
2022-11-19T22:13:13.632Z,-68
2022-11-19T22:18:15.516Z,-73
2022-11-19T22:23:22.986Z,-71
2022-11-19T22:28:26.123Z,-71
2022-11-19T22:33:36.863Z,-71
2022-11-19T22:38:39.152Z,-70
2022-11-19T22:43:42.117Z,-70
2022-11-19T22:48:44.234Z,-69
2022-11-19T22:53:47.736Z,-72
2022-11-19T22:58:50.338Z,-71
2022-11-19T23:03:52.879Z,-71
2022-11-19T23:08:55.259Z,-70
2022-11-19T23:13:57.444Z,-70
2022-11-19T23:18:59.420Z,-70
2022-11-19T23:24:01.432Z,-72
2022-11-19T23:29:03.776Z,-65
2022-11-19T23:34:06.252Z,-70
2022-11-19T23:39:14.813Z,-72
2022-11-19T23:44:16.739Z,-72
2022-11-19T23:49:18.822Z,-72
2022-11-19T23:54:21.173Z,-70
2022-11-19T23:59:25.607Z,-72
